Tokyo, Japan
Current Conditions -  °F | °C
As of 12:30 PM on Tuesday 21 Oct 2014 (Local Time) from RJTT Reporting Station
Broken Clouds Broken Clouds  
Wind Chill: 66°   Ceiling: 5000
Heat Index: 66°   Visibility: 6mi
Dew Point: 61°   Wind: 21mph
Humidity: 83%   Direction: 200°SSW
Pressure: 30"   Gusts: NA
Location:  35.67°N, 139.77°E
Report Text: RJTT 210330Z 20018KT 9999 FEW008 SCT030 BKN050 19/16 Q1016 TEMPO 19022G32KT RMK 1ST008 3CU030 6SC050 A3001
Loading
Personal Weather Stations






























Interactive Weather Map
Tropical Storm Tracking
New forecast layout! Learn more

10-Day Weather Forecast

Advertisements
Track Severe Weather on mobile